Arcadia, Nebraska
Current Conditions -  °F | °C
As of 12:53 AM on Wednesday 26 Nov 2014 (Local Time) from KODX Reporting Station
Few Clouds Few Clouds  
Wind Chill: -4°   Ceiling: Unl
Heat Index:   Visibility: 10mi
Dew Point: -3°   Wind: 15mph
Humidity: 72%   Direction: 290°WNW
Pressure: 29.9"   Gusts: NA
Location:  41.42°N, 99.13°W
Report Text: KODX 260653Z AUTO 29013KT 10SM FEW070 02/M03 A2990 RMK AO2 SLP138 T00171028
Loading
Personal Weather Stations






























Interactive Weather Map New forecast layout! Learn more

10-Day Weather Forecast

Advertisements
Track Severe Weather on mobile